• Join FlightAware (Why Join?)
  • Login
  • US Flag 
03:10PM EDT


 

Airport Tracker/Info


-or-


 

Live Flight TrackerFlight Track Log ✈ N770NC ✈ 15-Jun-2013 ✈ KAGS - KATL

Flight Track Log - Related Links

Times and Time Zones

All times are in EDT time to prevent confusion due to time zone crossing. See the N770NC flight status page for this flight to view local times or setup timezone preferences in your user account.

Time Position Orientation Groundspeed Altitude Reporting Facility
EDT Latitude Longitude Course Direction KTS MPH feet Rate Location/Type
08:15AM 33.5747 -82.0790 337° Northwest  Level FlightAware Approximate
08:15AM 33.3942 -82.1828 242° Southwest 268 308 6,600  Level Atlanta Center
08:16AM 33.6436 -82.1218 337° Northwest  Level FlightAware Approximate
08:16AM 33.3808 -82.2775 260° West 283 326 9,100  Level Atlanta Center
08:17AM 33.6936 -82.1691 248° West  Level FlightAware Approximate
08:17AM 33.3717 -82.3772 264° West 307 353 11,200  Level Atlanta Center
08:18AM 33.6573 -82.2521 239° Southwest  Level FlightAware Approximate
08:18AM 33.3567 -82.4919 261° West 336 387 12,900  Level Atlanta Center
08:19AM 33.6170 -82.3327 239° Southwest  Level FlightAware Approximate
08:19AM 33.3414 -82.6114 261° West 358 412 15,700  Level Atlanta Center
08:20AM 33.5788 -82.4146 242° Southwest  Level FlightAware Approximate
08:20AM 33.3281 -82.7361 263° West 358 412 17,600  Level Atlanta Center
08:21AM 33.3147 -82.8456 262° West 358 412 19,300 1,560 Climbing Atlanta Center
08:22AM 33.2972 -82.9875 262° West 386 444 20,800 1,320 Climbing Atlanta Center
08:23AM 33.2647 -83.1172 253° West 399 459 22,000 300 Climbing Atlanta Center
08:24AM 33.2136 -83.2492 245° Southwest 426 490 21,500 -1,200 Descending Atlanta Center
08:25AM 33.1600 -83.3786 244° Southwest 442 509 19,700 -2,280 Descending Atlanta Center
08:26AM 33.1106 -83.5106 246° West 436 502 17,000 -2,760 Descending Atlanta Center
08:27AM 33.0756 -83.6322 251° West 416 479 14,200 -1,500 Descending Atlanta Center
08:28AM 33.1156 -83.7239 298° West 339 390 14,000 -120 Descending Atlanta Center
08:29AM 33.2000 -83.8000 323° Northwest 368 423 14,000  Level Atlanta TRACON
08:30AM 33.2667 -83.8833 314° West 377 434 14,000  Level Atlanta TRACON
08:31AM 33.3333 -83.9667 314° West 385 443 14,000 -420 Level Atlanta TRACON
08:32AM 33.4167 -84.0667 315° West 395 455 13,300 -900 Descending Atlanta TRACON
08:33AM 33.4667 -84.1667 301° West 378 435 12,300 -660 Descending Atlanta TRACON
08:34AM 33.5167 -84.2667 301° West 294 338 12,000 -540 Descending Atlanta TRACON
08:35AM 33.5333 -84.3500 284° West 250 288 11,200 -1,080 Descending Atlanta TRACON
08:36AM 33.5333 -84.4167 270° West 248 285 10,000 -1,800 Descending Atlanta TRACON
08:37AM 33.5333 -84.5000 270° West 234 269 7,800 -2,160 Descending Atlanta TRACON
08:38AM 33.5333 -84.5667 270° West 228 262 5,900 -2,160 Descending Atlanta TRACON